createdAt,value
2022-08-04T00:00:11.919Z,100.00
2022-08-04T00:03:05.567Z,100.00
2022-08-04T00:05:46.979Z,100.00
2022-08-04T00:08:31.590Z,100.00
2022-08-04T00:11:00.272Z,100.00
2022-08-04T00:13:30.563Z,100.00
2022-08-04T00:16:05.786Z,100.00
2022-08-04T00:18:40.908Z,100.00
2022-08-04T00:21:13.493Z,100.00
2022-08-04T00:24:10.816Z,100.00
2022-08-04T00:26:33.814Z,100.00
2022-08-04T00:29:01.144Z,100.00
2022-08-04T00:31:52.077Z,100.00
2022-08-04T00:34:15.150Z,100.00
2022-08-04T00:36:44.131Z,100.00
2022-08-04T00:39:16.086Z,100.00
2022-08-04T00:42:00.859Z,100.00
2022-08-04T00:44:52.317Z,100.00
2022-08-04T00:47:29.094Z,100.00
2022-08-04T00:50:22.523Z,100.00
2022-08-04T00:53:07.314Z,100.00
2022-08-04T00:56:24.942Z,100.00
2022-08-04T00:59:13.035Z,100.00
2022-08-04T01:01:42.451Z,100.00
2022-08-04T01:04:22.338Z,100.00
2022-08-04T01:07:10.706Z,100.00
2022-08-04T01:09:50.666Z,100.00
2022-08-04T01:12:17.111Z,100.00
2022-08-04T01:14:51.380Z,100.00
2022-08-04T01:17:36.103Z,100.00
2022-08-04T01:20:07.848Z,100.00
2022-08-04T01:22:34.269Z,100.00
2022-08-04T01:25:39.175Z,100.00
2022-08-04T01:28:44.880Z,100.00
2022-08-04T01:31:25.806Z,100.00
2022-08-04T01:33:58.396Z,100.00
2022-08-04T01:36:33.917Z,100.00
2022-08-04T01:39:20.991Z,100.00
2022-08-04T01:41:57.971Z,100.00
2022-08-04T01:44:28.572Z,100.00
2022-08-04T01:46:55.270Z,100.00
2022-08-04T01:49:25.357Z,100.00
2022-08-04T01:51:52.655Z,100.00
2022-08-04T01:54:20.022Z,100.00
2022-08-04T01:56:56.592Z,100.00
2022-08-04T01:59:23.243Z,100.00
2022-08-04T02:01:49.841Z,100.00
2022-08-04T02:04:23.354Z,100.00
2022-08-04T02:07:20.014Z,100.00
2022-08-04T02:10:06.563Z,100.00
2022-08-04T02:12:38.954Z,100.00
2022-08-04T02:15:23.848Z,100.00
2022-08-04T02:18:04.354Z,100.00
2022-08-04T02:20:35.662Z,100.00
2022-08-04T02:23:06.676Z,100.00
2022-08-04T02:25:39.843Z,100.00
2022-08-04T02:28:19.513Z,100.00
2022-08-04T02:31:03.722Z,100.00
2022-08-04T02:33:43.114Z,100.00
2022-08-04T02:36:16.716Z,100.00
2022-08-04T02:38:52.199Z,100.00
2022-08-04T02:41:21.690Z,100.00
2022-08-04T02:43:50.958Z,100.00
2022-08-04T02:46:21.547Z,100.00
2022-08-04T02:48:51.458Z,100.00
2022-08-04T02:51:22.788Z,100.00
2022-08-04T02:53:53.761Z,100.00
2022-08-04T02:56:22.561Z,100.00
2022-08-04T02:58:58.125Z,100.00
2022-08-04T03:01:26.842Z,100.00
2022-08-04T03:04:12.588Z,100.00
2022-08-04T03:07:06.071Z,100.00
2022-08-04T03:10:06.769Z,100.00
2022-08-04T03:12:59.056Z,100.00
2022-08-04T03:15:55.181Z,100.00
2022-08-04T03:18:36.625Z,100.00
2022-08-04T03:21:34.050Z,100.00
2022-08-04T03:24:01.103Z,100.00
2022-08-04T03:26:40.328Z,100.00
2022-08-04T03:29:36.243Z,100.00
2022-08-04T03:32:41.089Z,100.00
2022-08-04T03:35:45.938Z,100.00
2022-08-04T03:38:31.387Z,100.00
2022-08-04T03:41:56.082Z,100.00
2022-08-04T03:44:33.680Z,100.00
2022-08-04T03:47:17.688Z,100.00
2022-08-04T03:50:18.136Z,100.00
2022-08-04T03:53:08.971Z,100.00
2022-08-04T03:56:03.494Z,100.00
2022-08-04T03:58:54.890Z,100.00
2022-08-04T04:02:01.440Z,100.00
2022-08-04T04:04:40.603Z,100.00
2022-08-04T04:07:25.572Z,100.00
2022-08-04T04:10:36.041Z,100.00
2022-08-04T04:13:14.841Z,100.00
2022-08-04T04:15:58.878Z,100.00
2022-08-04T04:18:52.030Z,100.00
2022-08-04T04:21:47.625Z,100.00
2022-08-04T04:24:38.772Z,100.00
2022-08-04T04:27:36.007Z,100.00
2022-08-04T04:30:12.427Z,100.00
2022-08-04T04:32:54.929Z,100.00
2022-08-04T04:35:33.486Z,100.00
2022-08-04T04:38:09.298Z,100.00
2022-08-04T04:40:41.551Z,100.00
2022-08-04T04:43:17.211Z,100.00
2022-08-04T04:46:00.189Z,100.00
2022-08-04T04:48:36.759Z,100.00
2022-08-04T04:51:14.091Z,100.00
2022-08-04T04:53:43.551Z,100.00
2022-08-04T04:56:51.809Z,100.00
2022-08-04T04:59:23.111Z,100.00
2022-08-04T05:02:21.404Z,100.00
2022-08-04T05:05:34.314Z,100.00
2022-08-04T05:08:43.606Z,100.00
2022-08-04T05:11:17.043Z,100.00
2022-08-04T05:14:35.802Z,100.00
2022-08-04T05:16:50.736Z,100.00
2022-08-04T05:19:49.117Z,100.00
2022-08-04T05:22:29.633Z,100.00
2022-08-04T05:25:08.662Z,100.00
2022-08-04T05:27:41.086Z,100.00
2022-08-04T05:30:13.030Z,100.00
2022-08-04T05:32:55.117Z,100.00
2022-08-04T05:36:18.701Z,100.00
2022-08-04T05:38:39.677Z,100.00
2022-08-04T05:41:09.600Z,100.00
2022-08-04T05:43:41.738Z,100.00
2022-08-04T05:46:11.193Z,100.00
2022-08-04T05:48:38.730Z,100.00
2022-08-04T05:51:06.875Z,100.00
2022-08-04T05:53:34.618Z,100.00
2022-08-04T05:56:03.226Z,100.00
2022-08-04T05:58:30.952Z,100.00
2022-08-04T06:01:01.478Z,100.00
2022-08-04T06:03:30.863Z,100.00
2022-08-04T06:05:58.584Z,100.00
2022-08-04T06:08:25.556Z,100.00
2022-08-04T06:10:54.025Z,100.00
2022-08-04T06:13:49.039Z,100.00
2022-08-04T06:16:29.888Z,100.00
2022-08-04T06:19:59.164Z,100.00
2022-08-04T06:21:49.953Z,100.00
2022-08-04T06:24:20.418Z,100.00
2022-08-04T06:26:49.315Z,100.00
2022-08-04T06:29:24.859Z,100.00
2022-08-04T06:32:30.120Z,100.00
2022-08-04T06:34:46.533Z,100.00
2022-08-04T06:37:40.762Z,100.00
2022-08-04T06:40:05.220Z,100.00
2022-08-04T06:42:51.822Z,100.00
2022-08-04T06:45:20.664Z,100.00
2022-08-04T06:47:48.400Z,100.00
2022-08-04T06:51:24.918Z,100.00
2022-08-04T06:53:02.419Z,100.00
2022-08-04T06:55:29.324Z,100.00
2022-08-04T06:57:59.623Z,100.00
2022-08-04T07:00:30.605Z,100.00
2022-08-04T07:02:57.970Z,100.00
2022-08-04T07:05:25.150Z,100.00
2022-08-04T07:07:57.543Z,100.00
2022-08-04T07:10:25.279Z,100.00
2022-08-04T07:12:52.945Z,100.00
2022-08-04T07:15:21.324Z,100.00
2022-08-04T07:17:49.690Z,100.00
2022-08-04T07:20:34.284Z,100.00
2022-08-04T07:23:03.739Z,100.00
2022-08-04T07:25:59.842Z,100.00
2022-08-04T07:28:17.385Z,100.00
2022-08-04T07:30:45.054Z,100.00
2022-08-04T07:33:11.773Z,100.00
2022-08-04T07:36:05.958Z,100.00
2022-08-04T07:38:27.522Z,100.00
2022-08-04T07:40:55.377Z,100.00
2022-08-04T07:43:22.809Z,100.00
2022-08-04T07:45:49.653Z,100.00
2022-08-04T07:48:18.757Z,100.00
2022-08-04T07:50:46.788Z,100.00
2022-08-04T07:53:55.225Z,100.00
2022-08-04T07:56:02.540Z,100.00
2022-08-04T07:58:30.194Z,100.00
2022-08-04T08:00:57.977Z,100.00
2022-08-04T08:03:25.635Z,100.00
2022-08-04T08:06:16.493Z,100.00
2022-08-04T08:08:39.710Z,100.00
2022-08-04T08:11:09.597Z,100.00
2022-08-04T08:13:36.636Z,100.00
2022-08-04T08:16:04.954Z,100.00
2022-08-04T08:18:31.963Z,100.00
2022-08-04T08:20:58.624Z,100.00
2022-08-04T08:23:26.389Z,100.00
2022-08-04T08:25:52.919Z,100.00
2022-08-04T08:28:19.646Z,100.00
2022-08-04T08:30:46.093Z,100.00
2022-08-04T08:33:20.633Z,93.06
2022-08-04T08:35:54.906Z,95.75
2022-08-04T08:38:32.333Z,94.02
2022-08-04T08:41:18.216Z,90.97
2022-08-04T08:44:07.711Z,91.86
2022-08-04T08:46:53.725Z,100.00
2022-08-04T08:50:01.548Z,92.36
2022-08-04T08:52:55.317Z,84.95
2022-08-04T08:55:35.032Z,79.76
2022-08-04T08:58:30.050Z,83.38
2022-08-04T09:01:07.337Z,84.74
2022-08-04T09:03:51.527Z,83.95
2022-08-04T09:06:46.034Z,87.59
2022-08-04T09:09:31.257Z,87.40
2022-08-04T09:12:25.811Z,77.86
2022-08-04T09:15:10.219Z,75.96
2022-08-04T09:17:54.083Z,76.02
2022-08-04T09:20:23.442Z,73.46
2022-08-04T09:22:54.573Z,72.82
2022-08-04T09:25:30.788Z,72.00
2022-08-04T09:28:09.132Z,71.39
2022-08-04T09:30:45.494Z,76.84
2022-08-04T09:33:45.167Z,75.78
2022-08-04T09:36:26.763Z,80.84
2022-08-04T09:39:06.391Z,82.08
2022-08-04T09:41:56.021Z,84.50
2022-08-04T09:44:50.770Z,79.96
2022-08-04T09:47:39.338Z,82.40
2022-08-04T09:50:30.582Z,84.13
2022-08-04T09:53:06.425Z,76.95
2022-08-04T09:55:53.404Z,86.42
2022-08-04T09:58:38.999Z,84.49
2022-08-04T10:01:11.558Z,77.74
2022-08-04T10:03:43.594Z,78.16
2022-08-04T10:06:19.341Z,80.15
2022-08-04T10:09:00.197Z,70.78
2022-08-04T10:11:54.350Z,68.61
2022-08-04T10:14:38.984Z,78.66
2022-08-04T10:17:26.778Z,78.58
2022-08-04T10:20:36.491Z,73.63
2022-08-04T10:23:15.866Z,69.46
2022-08-04T10:26:06.095Z,61.79
2022-08-04T10:28:58.429Z,63.15
2022-08-04T10:31:30.175Z,68.84
2022-08-04T10:34:11.662Z,63.06
2022-08-04T10:37:00.939Z,65.47
2022-08-04T10:40:17.238Z,67.49
2022-08-04T10:42:56.991Z,65.10
2022-08-04T10:45:34.274Z,62.00
2022-08-04T10:48:34.953Z,59.99
2022-08-04T10:51:19.025Z,68.25
2022-08-04T10:53:52.472Z,58.43
2022-08-04T10:56:44.009Z,60.98
2022-08-04T10:59:22.065Z,60.08
2022-08-04T11:02:02.563Z,57.58
2022-08-04T11:04:44.348Z,60.53
2022-08-04T11:07:12.374Z,64.94
2022-08-04T11:09:40.130Z,68.02
2022-08-04T11:12:12.679Z,57.99
2022-08-04T11:14:50.165Z,54.31
2022-08-04T11:17:25.611Z,55.52
2022-08-04T11:20:18.228Z,57.07
2022-08-04T11:23:06.556Z,54.65
2022-08-04T11:25:42.451Z,54.35
2022-08-04T11:28:24.912Z,55.16
2022-08-04T11:30:57.038Z,55.85
2022-08-04T11:33:29.363Z,57.55
2022-08-04T11:36:05.781Z,59.46
2022-08-04T11:38:52.130Z,61.87
2022-08-04T11:41:26.444Z,60.06
2022-08-04T11:44:01.677Z,56.14
2022-08-04T11:46:42.819Z,60.99
2022-08-04T11:49:24.354Z,65.92
2022-08-04T11:51:52.756Z,53.55
2022-08-04T11:54:21.700Z,56.14
2022-08-04T11:56:48.256Z,51.28
2022-08-04T11:59:14.924Z,55.01
2022-08-04T12:01:57.447Z,57.59
2022-08-04T12:05:00.198Z,56.72
2022-08-04T12:08:04.919Z,55.37
2022-08-04T12:11:02.789Z,53.00
2022-08-04T12:13:45.750Z,55.71
2022-08-04T12:16:20.115Z,55.45
2022-08-04T12:18:57.520Z,51.50
2022-08-04T12:21:39.535Z,56.89
2022-08-04T12:24:20.116Z,52.92
2022-08-04T12:26:56.117Z,56.13
2022-08-04T12:29:26.112Z,58.45
2022-08-04T12:32:13.415Z,54.51
2022-08-04T12:35:08.671Z,55.96
2022-08-04T12:38:08.947Z,59.01
2022-08-04T12:40:42.277Z,57.36
2022-08-04T12:43:24.583Z,58.31
2022-08-04T12:45:55.145Z,60.26
2022-08-04T12:48:23.521Z,61.31
2022-08-04T12:50:52.402Z,61.70
2022-08-04T12:53:31.437Z,60.89
2022-08-04T12:56:01.813Z,61.48
2022-08-04T12:58:43.367Z,62.96
2022-08-04T13:02:11.027Z,65.66
2022-08-04T13:04:21.789Z,67.91
2022-08-04T13:07:01.915Z,65.99
2022-08-04T13:09:34.180Z,66.95
2022-08-04T13:12:06.254Z,68.90
2022-08-04T13:14:38.301Z,71.79
2022-08-04T13:17:06.515Z,70.37
2022-08-04T13:19:41.381Z,73.81
2022-08-04T13:22:08.830Z,75.25
2022-08-04T13:24:56.377Z,75.66
2022-08-04T13:27:24.708Z,72.72
2022-08-04T13:29:58.690Z,74.07
2022-08-04T13:32:31.144Z,73.65
2022-08-04T13:35:00.817Z,68.92
2022-08-04T13:37:34.786Z,71.39
2022-08-04T13:40:04.852Z,66.36
2022-08-04T13:42:35.849Z,64.24
2022-08-04T13:45:06.276Z,75.18
2022-08-04T13:47:37.289Z,72.78
2022-08-04T13:50:16.013Z,77.56
2022-08-04T13:52:43.782Z,75.41
2022-08-04T13:55:26.667Z,76.85
2022-08-04T13:57:59.040Z,71.99
2022-08-04T14:00:37.404Z,74.05
2022-08-04T14:03:18.990Z,67.38
2022-08-04T14:06:21.495Z,68.09
2022-08-04T14:08:54.506Z,68.67
2022-08-04T14:12:09.411Z,72.32
2022-08-04T14:14:34.651Z,68.91
2022-08-04T14:17:19.691Z,67.62
2022-08-04T14:19:46.935Z,72.22
2022-08-04T14:22:26.329Z,65.16
2022-08-04T14:25:08.961Z,66.61
2022-08-04T14:27:47.668Z,68.06
2022-08-04T14:30:25.067Z,67.35
2022-08-04T14:34:03.204Z,64.96
2022-08-04T14:35:58.499Z,62.98
2022-08-04T14:38:40.924Z,65.20
2022-08-04T14:41:07.420Z,65.03
2022-08-04T14:43:42.220Z,66.37
2022-08-04T14:46:10.429Z,68.00
2022-08-04T14:48:42.371Z,64.59
2022-08-04T14:51:16.077Z,64.39
2022-08-04T14:53:47.423Z,64.62
2022-08-04T14:56:37.363Z,64.48
2022-08-04T14:59:03.978Z,63.92
2022-08-04T15:01:30.746Z,65.03
2022-08-04T15:04:00.493Z,61.75
2022-08-04T15:06:28.852Z,63.62
2022-08-04T15:08:58.317Z,60.42
2022-08-04T15:11:26.363Z,59.63
2022-08-04T15:13:54.387Z,61.91
2022-08-04T15:16:22.350Z,62.30
2022-08-04T15:18:50.066Z,64.96
2022-08-04T15:21:17.297Z,64.42
2022-08-04T15:23:43.859Z,66.42
2022-08-04T15:26:16.907Z,67.90
2022-08-04T15:28:50.353Z,68.78
2022-08-04T15:32:06.742Z,68.17
2022-08-04T15:34:09.950Z,71.32
2022-08-04T15:36:57.940Z,70.43
2022-08-04T15:39:44.504Z,69.71
2022-08-04T15:42:21.458Z,71.25
2022-08-04T15:44:51.130Z,72.03
2022-08-04T15:47:18.065Z,70.42
2022-08-04T15:49:45.500Z,69.20
2022-08-04T15:52:18.209Z,72.94
2022-08-04T15:54:52.529Z,74.93
2022-08-04T15:57:59.361Z,74.25
2022-08-04T16:00:26.002Z,73.76
2022-08-04T16:02:52.575Z,73.21
2022-08-04T16:05:19.092Z,73.13
2022-08-04T16:07:58.383Z,75.17
2022-08-04T16:10:30.731Z,73.90
2022-08-04T16:13:03.288Z,71.79
2022-08-04T16:15:53.346Z,75.47
2022-08-04T16:18:38.378Z,76.83
2022-08-04T16:21:17.641Z,74.33
2022-08-04T16:23:56.009Z,72.60
2022-08-04T16:26:42.391Z,70.41
2022-08-04T16:29:31.801Z,69.10
2022-08-04T16:32:04.218Z,72.64
2022-08-04T16:34:54.665Z,74.08
2022-08-04T16:37:33.859Z,74.21
2022-08-04T16:40:38.740Z,75.54
2022-08-04T16:43:07.614Z,76.31
2022-08-04T16:45:43.979Z,79.73
2022-08-04T16:48:12.261Z,78.27
2022-08-04T16:50:48.633Z,77.15
2022-08-04T16:53:53.432Z,78.20
2022-08-04T16:56:05.017Z,79.92
2022-08-04T16:58:36.861Z,81.27
2022-08-04T17:01:32.327Z,80.21
2022-08-04T17:04:05.213Z,80.13
2022-08-04T17:06:43.542Z,77.61
2022-08-04T17:09:18.958Z,80.42
2022-08-04T17:11:47.496Z,88.59
2022-08-04T17:14:22.791Z,94.01
2022-08-04T17:16:49.550Z,100.00
2022-08-04T17:19:23.784Z,100.00
2022-08-04T17:22:02.240Z,100.00
2022-08-04T17:24:29.896Z,100.00
2022-08-04T17:26:58.160Z,100.00
2022-08-04T17:32:20.751Z,100.00
2022-08-04T17:34:55.606Z,100.00
2022-08-04T17:37:52.592Z,100.00
2022-08-04T17:40:18.559Z,100.00
2022-08-04T17:46:33.934Z,100.00
2022-08-04T17:49:16.705Z,100.00
2022-08-04T17:52:05.208Z,100.00
2022-08-04T17:54:43.423Z,100.00
2022-08-04T17:57:15.647Z,100.00
2022-08-04T17:59:57.163Z,100.00
2022-08-04T18:02:33.439Z,100.00
2022-08-04T18:05:07.770Z,100.00
2022-08-04T18:08:39.304Z,100.00
2022-08-04T18:10:51.606Z,100.00
2022-08-04T18:13:24.874Z,100.00
2022-08-04T18:16:02.577Z,100.00
2022-08-04T18:18:29.861Z,100.00
2022-08-04T18:20:56.425Z,100.00
2022-08-04T18:23:32.141Z,100.00
2022-08-04T18:26:02.424Z,100.00
2022-08-04T18:28:31.329Z,100.00
2022-08-04T18:30:59.850Z,100.00
2022-08-04T18:33:39.642Z,100.00
2022-08-04T18:36:32.666Z,100.00
2022-08-04T18:38:59.185Z,100.00
2022-08-04T18:42:02.110Z,100.00
2022-08-04T18:44:29.017Z,100.00
2022-08-04T18:47:19.042Z,100.00
2022-08-04T18:50:59.018Z,100.00
2022-08-04T18:52:33.383Z,100.00
2022-08-04T18:55:01.813Z,100.00
2022-08-04T18:57:58.757Z,100.00
2022-08-04T19:00:17.371Z,100.00
2022-08-04T19:02:46.725Z,100.00
2022-08-04T19:05:17.421Z,100.00
2022-08-04T19:08:11.455Z,100.00
2022-08-04T19:10:32.328Z,100.00
2022-08-04T19:13:01.412Z,100.00
2022-08-04T19:15:34.463Z,100.00
2022-08-04T19:18:02.064Z,100.00
2022-08-04T19:20:29.658Z,100.00
2022-08-04T19:26:01.563Z,100.00
2022-08-04T19:28:34.378Z,100.00
2022-08-04T19:31:05.672Z,100.00
2022-08-04T19:33:58.029Z,100.00
2022-08-04T19:36:19.003Z,100.00
2022-08-04T19:38:45.524Z,100.00
2022-08-04T19:41:14.805Z,100.00
2022-08-04T19:43:44.029Z,100.00
2022-08-04T19:46:12.196Z,100.00
2022-08-04T19:48:39.428Z,100.00
2022-08-04T19:51:05.909Z,100.00
2022-08-04T19:53:37.516Z,100.00
2022-08-04T19:56:09.527Z,100.00
2022-08-04T19:58:38.630Z,100.00
2022-08-04T20:01:05.117Z,100.00
2022-08-04T20:04:09.537Z,100.00
2022-08-04T20:06:37.853Z,100.00
2022-08-04T20:09:04.357Z,100.00
2022-08-04T20:11:50.897Z,100.00
2022-08-04T20:14:17.726Z,100.00
2022-08-04T20:16:46.330Z,100.00
2022-08-04T20:19:14.138Z,100.00
2022-08-04T20:21:55.994Z,100.00
2022-08-04T20:24:37.560Z,100.00
2022-08-04T20:27:15.783Z,100.00
2022-08-04T20:29:48.414Z,100.00
2022-08-04T20:32:16.739Z,100.00
2022-08-04T20:34:46.257Z,100.00
2022-08-04T20:37:15.348Z,100.00
2022-08-04T20:39:42.306Z,100.00
2022-08-04T20:42:11.442Z,100.00
2022-08-04T20:44:42.231Z,100.00
2022-08-04T20:47:14.056Z,100.00
2022-08-04T20:49:40.985Z,100.00
2022-08-04T20:52:16.431Z,100.00
2022-08-04T20:54:48.345Z,100.00
2022-08-04T21:00:02.545Z,100.00
2022-08-04T21:02:29.393Z,100.00
2022-08-04T21:04:55.896Z,100.00
2022-08-04T21:07:25.004Z,100.00
2022-08-04T21:09:52.159Z,100.00
2022-08-04T21:12:27.639Z,100.00
2022-08-04T21:14:56.730Z,100.00
2022-08-04T21:17:58.713Z,100.00
2022-08-04T21:20:12.958Z,100.00
2022-08-04T21:22:40.315Z,100.00
2022-08-04T21:25:07.697Z,100.00
2022-08-04T21:27:42.411Z,100.00
2022-08-04T21:30:24.185Z,100.00
2022-08-04T21:32:52.756Z,100.00
2022-08-04T21:35:19.595Z,100.00
2022-08-04T21:37:58.126Z,100.00
2022-08-04T21:40:36.707Z,100.00
2022-08-04T21:43:05.141Z,100.00
2022-08-04T21:45:36.219Z,100.00
2022-08-04T21:48:03.221Z,100.00
2022-08-04T21:50:31.140Z,100.00
2022-08-04T21:52:57.664Z,100.00
2022-08-04T21:55:25.823Z,100.00
2022-08-04T21:58:13.297Z,100.00
2022-08-04T22:00:40.270Z,100.00
2022-08-04T22:03:11.263Z,100.00
2022-08-04T22:05:53.339Z,100.00
2022-08-04T22:08:20.108Z,100.00
2022-08-04T22:10:50.119Z,100.00
2022-08-04T22:13:22.449Z,100.00
2022-08-04T22:16:04.049Z,100.00
2022-08-04T22:18:32.263Z,100.00
2022-08-04T22:21:04.018Z,100.00
2022-08-04T22:23:45.202Z,100.00
2022-08-04T22:26:14.389Z,100.00
2022-08-04T22:28:46.876Z,100.00
2022-08-04T22:31:24.219Z,100.00
2022-08-04T22:33:54.468Z,100.00
2022-08-04T22:36:24.865Z,100.00
2022-08-04T22:39:01.497Z,100.00
2022-08-04T22:41:34.482Z,100.00
2022-08-04T22:44:15.613Z,100.00
2022-08-04T22:46:42.644Z,100.00
2022-08-04T22:49:09.072Z,100.00
2022-08-04T22:51:36.063Z,100.00
2022-08-04T22:54:02.453Z,100.00
2022-08-04T22:56:39.289Z,100.00
2022-08-04T22:59:10.087Z,100.00
2022-08-04T23:01:58.977Z,100.00
2022-08-04T23:04:25.537Z,100.00
2022-08-04T23:06:52.808Z,100.00
2022-08-04T23:09:19.195Z,100.00
2022-08-04T23:11:50.518Z,100.00
2022-08-04T23:14:20.592Z,100.00
2022-08-04T23:16:48.705Z,100.00
2022-08-04T23:19:19.965Z,100.00
2022-08-04T23:22:01.973Z,100.00
2022-08-04T23:24:29.601Z,100.00
2022-08-04T23:26:57.033Z,100.00
2022-08-04T23:29:23.642Z,100.00
2022-08-04T23:31:59.089Z,100.00
2022-08-04T23:34:27.592Z,100.00
2022-08-04T23:36:56.126Z,100.00
2022-08-04T23:39:25.619Z,100.00
2022-08-04T23:42:15.075Z,100.00
2022-08-04T23:44:47.626Z,100.00
2022-08-04T23:48:19.022Z,100.00
2022-08-04T23:50:00.481Z,100.00
2022-08-04T23:52:30.027Z,100.00
2022-08-04T23:55:00.760Z,100.00
2022-08-04T23:57:31.151Z,100.00
